• Join FlightAware (Why Join?)
  • Login
  • US Flag 
07:54PM EDT


 

Airport Tracker/Info


-or-


 

Live Flight TrackerFlight Track Log ✈ ASQ5389 ✈ 19-Apr-2013 ✈ KMEM - KRDU

Flight Track Log - Related Links

Times and Time Zones

All times are in EDT time to prevent confusion due to time zone crossing. See the ASQ5389 flight status page for this flight to view local times or setup timezone preferences in your user account.

Time Position Orientation Groundspeed Altitude Reporting Facility
EDT Latitude Longitude Course Direction KTS MPH feet Rate Location/Type
09:45AM 35.0500 -89.9667 12° North 148 170 1,100  Level KMEM
09:46AM 35.1167 -89.9500 12° North 248 285 3,000 2,340 Climbing KMEM
09:47AM 35.1833 -89.9333 12° North 271 312 6,100 1,980 Climbing KMEM
09:48AM 35.2000 -89.8333 78° East 307 353 7,000 420 Climbing KMEM
09:49AM 35.1833 -89.7167 100° East 302 348 7,000 600 Level KMEM
09:51AM 35.1800 -89.5797 92° East 331 381 8,600 1,500 Climbing Memphis Center
09:52AM 35.1961 -89.4628 80° East 331 381 10,800 1,260 Climbing Memphis Center
09:53AM 35.2117 -89.3353 81° East 360 414 11,200 840 Climbing Memphis Center
09:54AM 35.2333 -89.1775 80° East 402 463 12,500 1,500 Climbing Memphis Center
09:55AM 35.2756 -89.0397 69° East 427 491 14,200 1,500 Climbing Memphis Center
09:56AM 35.3303 -88.8986 65° Northeast 448 516 15,600 1,140 Climbing Memphis Center
09:57AM 35.3850 -88.7500 66° East 458 527 16,500 780 Climbing Memphis Center
09:58AM 35.4392 -88.6011 66° East 464 534 17,200 720 Climbing Memphis Center
09:59AM 35.4994 -88.4494 64° Northeast 485 558 18,000 840 Climbing Memphis Center
10:00AM 35.5514 -88.3028 66° East 493 567 18,900 1,020 Climbing Memphis Center
10:01AM 35.6111 -88.1353 66° East 499 574 20,100 1,020 Climbing Memphis Center
10:02AM 35.6686 -87.9806 65° Northeast 568 654 21,000 780 Climbing Memphis Center
10:03AM 35.7261 -87.8228 66° East 523 602 21,700 660 Climbing Memphis Center
10:04AM 35.7853 -87.6650 65° Northeast 503 579 22,400 600 Climbing Memphis Center
10:05AM 35.8442 -87.5042 66° East 508 585 22,900 480 Climbing Memphis Center
10:06AM 35.9028 -87.3408 66° East 513 590 23,400 480 Climbing Memphis Center
10:07AM 35.9614 -87.1769 66° East 513 590 23,900 480 Climbing Memphis Center
10:08AM 36.0217 -87.0106 66° East 513 590 24,400 480 Climbing Memphis Center
10:09AM 36.0775 -86.8464 67° East 518 596 24,900 480 Climbing Memphis Center
10:10AM 36.1289 -86.6797 69° East 518 596 25,400 480 Climbing Memphis Center
10:11AM 36.1219 -86.5131 93° East 492 566 25,900 480 Climbing Memphis Center
10:12AM 36.1131 -86.3644 94° East 477 549 26,400 480 Climbing Memphis Center
10:14AM 36.0894 -86.0789 96° East 489 563 27,200 480 Climbing Atlanta Center
10:16AM 36.0669 -85.7803 95° East 469 540 28,200 480 Climbing Atlanta Center
10:17AM 36.0544 -85.6183 95° East 463 533 28,700 360 Climbing Atlanta Center
10:18AM 36.0417 -85.4564 96° East 469 540 29,000 120 Climbing Atlanta Center
10:19AM 36.0269 -85.2942 96° East 469 540 29,000  Level Atlanta Center
10:20AM 36.0139 -85.1322 96° East 469 540 29,000  Level Atlanta Center
10:21AM 36.0006 -84.9653 96° East 480 552 29,000  Level Atlanta Center
10:22AM 35.9872 -84.7983 96° East 485 558 29,000  Level Atlanta Center
10:23AM 35.9694 -84.6161 97° East 485 558 29,000  Level Atlanta Center
10:24AM 35.9553 -84.4544 96° East 485 558 29,000  Level Atlanta Center
10:25AM 35.9411 -84.2900 96° East 485 558 29,000  Level Atlanta Center
10:26AM 35.9247 -84.1258 97° East 485 558 29,000  Level Atlanta Center
10:27AM 35.9206 -83.9619 92° East 485 558 29,000  Level Atlanta Center
10:28AM 35.9308 -83.7925 86° East 485 558 29,000  Level Atlanta Center
10:29AM 35.9386 -83.6233 87° East 479 551 29,000  Level Atlanta Center
10:30AM 35.9483 -83.4514 86° East 484 557 29,000  Level Atlanta Center
10:31AM 35.9558 -83.2794 87° East 490 564 29,000  Level Atlanta Center
10:32AM 35.9589 -83.1281 89° East 500 575 29,000  Level Atlanta Center
10:33AM 35.9658 -82.9586 87° East 500 575 29,000  Level Atlanta Center
10:34AM 35.9744 -82.7686 87° East 500 575 29,000  Level Atlanta Center
10:35AM 35.9811 -82.6197 87° East 495 570 29,000  Level Atlanta Center
10:36AM 36.0461 -82.4644 63° Northeast 489 563 29,000  Level Atlanta Center
10:37AM 36.1272 -82.2983 59° Northeast 501 577 29,000  Level Atlanta Center
10:38AM 36.1919 -82.1658 59° Northeast 516 594 29,000  Level Atlanta Center
10:39AM 36.2686 -81.9967 61° Northeast 510 587 29,000  Level Atlanta Center
10:40AM 36.3353 -81.8636 58° Northeast 504 580 29,000  Level Atlanta Center
10:41AM 36.4033 -81.7119 61° Northeast 504 580 29,000 -180 Level Atlanta Center
10:42AM 36.4792 -81.5447 61° Northeast 497 572 28,700 -480 Descending Atlanta Center
10:43AM 36.5492 -81.3925 60° Northeast 504 580 28,100 -600 Descending Atlanta Center
10:44AM 36.6186 -81.2375 61° Northeast 511 588 27,500 -600 Descending Atlanta Center
10:45AM 36.6900 -81.0850 60° Northeast 511 588 26,900 -660 Descending Atlanta Center
10:47AM 36.8561 -80.7111 61° Northeast 507 583 25,400 -600 Descending Washington Center
10:48AM 36.9228 -80.5622 61° Northeast 496 571 25,000 -240 Descending Washington Center
10:49AM 36.9731 -80.4042 68° East 491 565 25,000 -120 Level Washington Center
10:50AM 37.0067 -80.2450 75° East 476 548 24,800 -360 Descending Washington Center
10:51AM 37.0372 -80.0958 76° East 476 548 24,300 -540 Descending Washington Center
10:52AM 37.0097 -79.9381 102° East 459 528 23,800 -540 Descending Washington Center
10:53AM 36.9544 -79.7922 115° Southeast 445 512 23,300 -600 Descending Washington Center
10:54AM 36.8953 -79.6306 115° Southeast 457 526 22,700 -600 Descending Washington Center
10:55AM 36.8419 -79.4797 114° Southeast 462 532 22,200 -660 Descending Washington Center
10:56AM 36.7903 -79.3344 114° Southeast 468 539 21,400 -1,500 Descending Washington Center
10:57AM 36.7439 -79.2103 115° Southeast 454 522 19,200 -2,340 Descending Washington Center
10:58AM 36.6978 -79.0814 114° Southeast 428 493 16,800 -2,520 Descending Washington Center
10:59AM 36.6269 -79.0056 139° Southeast 303 349 14,200 -2,460 Descending Washington Center
11:00AM 36.5422 -78.9786 166° South 292 336 11,900 -1,920 Descending Washington Center
11:01AM 36.4614 -78.9572 168° South 297 342 10,400 -1,020 Descending Washington Center
11:02AM 36.3811 -78.9228 161° South 302 348 9,900 -960 Descending Washington Center
11:03AM 36.3261 -78.8689 142° Southeast 289 333 8,500 -1,020 Descending Washington Center
11:04AM 36.2589 -78.8144 147° Southeast 263 303 8,000 -660 Descending Washington Center
11:05AM 36.2058 -78.7633 142° Southeast 214 246 7,200 -1,080 Descending Washington Center
11:06AM 36.1631 -78.7231 143° Southeast 233 268 5,900 -1,500 Descending Washington Center
11:07AM 36.1144 -78.6722 140° Southeast 220 253 4,400 -1,440 Descending Washington Center
11:08AM 36.0650 -78.6447 156° South 205 236 3,100 -780 Descending Washington Center
11:09AM 36.0150 -78.6375 173° South 189 217 2,900 -420 Descending Washington Center
11:10AM 35.9744 -78.6769 218° Southwest 153 176 2,300 -480 Descending Washington Center
11:11AM 35.9464 -78.7144 227° Southwest 151 174 1,900 -540 Descending Washington Center
11:12AM 35.9183 -78.7492 225° Southwest 127 146 1,200 -660 Descending Washington Center
11:14AM 35.8776 -78.7875 219° Southwest  Level Estimated
11:21AM 35.8776 -78.7875 90° East  Level Estimated
11:22AM 35.8776 -78.7875 90° East  Level Estimated